createdAt,value
2019-03-01T00:03:15.367Z,26.17
2019-03-01T00:08:28.214Z,25.43
2019-03-01T00:14:00.029Z,25.93
2019-03-01T00:19:34.460Z,25.90
2019-03-01T00:24:55.291Z,26.87
2019-03-01T00:30:25.805Z,25.17
2019-03-01T00:35:46.892Z,26.50
2019-03-01T00:41:05.700Z,26.13
2019-03-01T00:46:11.501Z,27.23
2019-03-01T00:51:17.068Z,23.57
2019-03-01T00:56:24.085Z,26.40
2019-03-01T01:01:29.884Z,26.53
2019-03-01T01:06:38.648Z,25.83
2019-03-01T01:11:46.395Z,25.63
2019-03-01T01:16:54.215Z,26.17
2019-03-01T01:22:00.320Z,25.37
2019-03-01T01:27:08.715Z,24.73
2019-03-01T01:32:16.315Z,24.43
2019-03-01T01:37:22.773Z,22.70
2019-03-01T01:42:28.650Z,23.40
2019-03-01T01:47:34.782Z,22.77
2019-03-01T01:52:40.615Z,23.23
2019-03-01T01:57:46.281Z,25.53
2019-03-01T02:02:53.257Z,26.07
2019-03-01T02:08:00.767Z,24.67
2019-03-01T02:13:08.613Z,26.03
2019-03-01T02:18:16.109Z,25.73
2019-03-01T02:23:22.690Z,26.40
2019-03-01T02:28:28.288Z,28.47
2019-03-01T02:33:33.904Z,26.40
2019-03-01T02:38:41.408Z,25.57
2019-03-01T02:43:51.447Z,25.47
2019-03-01T02:49:00.654Z,24.87
2019-03-01T02:54:06.545Z,24.37
2019-03-01T02:59:12.198Z,23.73
2019-03-01T03:04:18.521Z,24.03
2019-03-01T03:09:24.195Z,23.13
2019-03-01T03:14:35.605Z,21.90
2019-03-01T03:19:41.274Z,23.53
2019-03-01T03:24:48.175Z,24.07
2019-03-01T03:29:53.938Z,21.47
2019-03-01T03:35:00.770Z,22.70
2019-03-01T03:40:14.708Z,23.00
2019-03-01T03:45:22.415Z,23.70
2019-03-01T03:50:28.480Z,23.27
2019-03-01T03:55:39.170Z,23.90
2019-03-01T04:00:44.851Z,23.60
2019-03-01T04:05:52.821Z,22.43
2019-03-01T04:10:58.706Z,23.83
2019-03-01T04:16:06.272Z,25.10
2019-03-01T04:21:12.013Z,24.93
2019-03-01T04:26:17.610Z,23.83
2019-03-01T04:31:23.350Z,24.50
2019-03-01T04:36:29.774Z,25.93
2019-03-01T04:41:39.099Z,24.93
2019-03-01T04:46:45.905Z,24.93
2019-03-01T04:51:57.649Z,24.33
2019-03-01T04:57:03.238Z,24.20
2019-03-01T05:02:09.651Z,27.10
2019-03-01T05:07:15.204Z,26.53
2019-03-01T05:12:21.188Z,26.87
2019-03-01T05:17:28.012Z,26.03
2019-03-01T05:22:34.807Z,26.40
2019-03-01T05:27:44.716Z,30.43
2019-03-01T05:32:50.816Z,32.77
2019-03-01T05:37:56.651Z,35.60
2019-03-01T05:43:02.472Z,34.27
2019-03-01T05:48:08.316Z,34.33
2019-03-01T05:53:13.979Z,37.07
2019-03-01T05:58:31.402Z,35.37
2019-03-01T06:03:41.447Z,36.03
2019-03-01T06:08:52.873Z,36.17
2019-03-01T06:14:19.559Z,35.20
2019-03-01T06:19:28.462Z,35.50
2019-03-01T06:25:12.770Z,36.83
2019-03-01T06:30:38.173Z,36.10
2019-03-01T06:36:01.311Z,37.80
2019-03-01T06:41:26.140Z,35.87
2019-03-01T06:46:51.821Z,39.13
2019-03-01T06:51:59.039Z,40.87
2019-03-01T06:57:05.045Z,41.40
2019-03-01T07:02:13.125Z,41.87
2019-03-01T07:07:18.937Z,39.97
2019-03-01T07:12:24.578Z,40.87
2019-03-01T07:17:30.240Z,38.93
2019-03-01T07:22:36.689Z,40.17
2019-03-01T07:27:42.655Z,40.60
2019-03-01T07:32:48.236Z,38.57
2019-03-01T07:37:54.388Z,31.77
2019-03-01T07:43:01.041Z,36.33
2019-03-01T07:48:06.969Z,35.73
2019-03-01T07:53:12.700Z,37.73
2019-03-01T07:58:21.725Z,38.10
2019-03-01T08:03:26.254Z,37.60
2019-03-01T08:08:34.749Z,38.30
2019-03-01T08:13:39.605Z,38.97
2019-03-01T08:18:46.237Z,41.20
2019-03-01T08:23:52.065Z,40.57
2019-03-01T08:28:59.535Z,42.30
2019-03-01T08:34:05.694Z,39.20
2019-03-01T08:39:12.075Z,40.03
2019-03-01T08:44:19.442Z,42.40
2019-03-01T08:49:26.928Z,41.40
2019-03-01T08:54:33.203Z,41.97
2019-03-01T08:59:39.786Z,39.33
2019-03-01T09:04:50.830Z,39.53
2019-03-01T09:09:57.064Z,42.50
2019-03-01T09:15:07.383Z,42.07
2019-03-01T09:20:16.159Z,39.93
2019-03-01T09:25:22.002Z,39.77
2019-03-01T09:30:29.214Z,40.87
2019-03-01T09:35:39.682Z,39.70
2019-03-01T09:40:45.100Z,40.90
2019-03-01T09:45:51.729Z,39.37
2019-03-01T09:50:59.584Z,41.57
2019-03-01T09:56:05.934Z,38.97
2019-03-01T10:01:17.606Z,36.17
2019-03-01T10:06:24.646Z,34.10
2019-03-01T10:11:30.837Z,34.50
2019-03-01T10:16:36.646Z,35.60
2019-03-01T10:21:44.064Z,33.23
2019-03-01T10:26:51.366Z,34.70
2019-03-01T10:31:56.975Z,32.30
2019-03-01T10:37:02.536Z,35.20
2019-03-01T10:42:08.777Z,34.93
2019-03-01T10:47:14.976Z,36.23
2019-03-01T10:52:21.085Z,36.10
2019-03-01T10:57:26.676Z,35.07
2019-03-01T11:02:32.813Z,34.80
2019-03-01T11:07:38.635Z,37.57
2019-03-01T11:12:46.371Z,34.37
2019-03-01T11:17:52.048Z,35.37
2019-03-01T11:22:58.445Z,35.90
2019-03-01T11:28:05.710Z,33.47
2019-03-01T11:33:12.929Z,36.17
2019-03-01T11:38:19.588Z,37.93
2019-03-01T11:43:27.330Z,43.20
2019-03-01T11:48:34.937Z,33.70
2019-03-01T11:53:41.904Z,35.33
2019-03-01T11:58:49.112Z,36.83
2019-03-01T12:03:54.754Z,34.73
2019-03-01T12:09:01.284Z,34.50
2019-03-01T12:14:09.101Z,40.03
2019-03-01T12:19:15.639Z,31.77
2019-03-01T12:24:22.409Z,30.97
2019-03-01T12:29:27.991Z,31.57
2019-03-01T12:34:34.280Z,30.67
2019-03-01T12:39:40.533Z,31.93
2019-03-01T12:44:47.444Z,29.07
2019-03-01T12:49:53.569Z,29.53
2019-03-01T12:54:59.124Z,27.37
2019-03-01T13:00:08.257Z,26.20
2019-03-01T13:05:14.883Z,24.97
2019-03-01T13:10:23.847Z,43.33
2019-03-01T13:15:30.302Z,25.07
2019-03-01T13:20:38.170Z,20.00
2019-03-01T13:25:45.131Z,17.67
2019-03-01T13:30:50.854Z,15.97
2019-03-01T13:35:56.591Z,14.23
2019-03-01T13:41:03.024Z,14.73
2019-03-01T13:46:09.463Z,14.53
2019-03-01T13:51:17.310Z,12.40
2019-03-01T13:56:24.029Z,12.47
2019-03-01T14:01:29.915Z,12.67
2019-03-01T14:06:36.598Z,10.63
2019-03-01T14:11:46.031Z,11.50
2019-03-01T14:16:52.424Z,10.73
2019-03-01T14:21:57.990Z,24.67
2019-03-01T14:27:03.905Z,10.30
2019-03-01T14:32:10.345Z,9.73
2019-03-01T14:37:18.650Z,11.70
2019-03-01T14:42:24.761Z,9.70
2019-03-01T14:47:32.734Z,9.67
2019-03-01T14:52:38.866Z,8.87
2019-03-01T14:57:47.223Z,9.07
2019-03-01T15:03:08.633Z,8.97
2019-03-01T15:08:14.707Z,11.70
2019-03-01T15:13:21.785Z,7.63
2019-03-01T15:18:28.967Z,7.13
2019-03-01T15:23:34.832Z,7.97
2019-03-01T15:28:55.336Z,7.40
2019-03-01T15:33:58.836Z,6.73
2019-03-01T15:39:08.381Z,6.73
2019-03-01T15:44:14.723Z,8.63
2019-03-01T15:49:23.702Z,6.60
2019-03-01T15:54:29.009Z,6.37
2019-03-01T15:59:34.838Z,6.50
2019-03-01T16:04:41.989Z,7.30
2019-03-01T16:09:48.478Z,6.27
2019-03-01T16:14:57.202Z,10.10
2019-03-01T16:20:01.838Z,9.87
2019-03-01T16:25:11.100Z,8.53
2019-03-01T16:30:19.589Z,10.97
2019-03-01T16:35:27.239Z,6.50
2019-03-01T16:40:33.412Z,6.60
2019-03-01T16:45:40.224Z,7.50
2019-03-01T16:50:46.008Z,7.80
2019-03-01T16:55:54.019Z,6.80
2019-03-01T17:01:00.207Z,7.77
2019-03-01T17:06:06.557Z,7.30
2019-03-01T17:11:12.773Z,8.13
2019-03-01T17:16:20.465Z,7.73
2019-03-01T17:21:28.042Z,9.57
2019-03-01T17:26:33.642Z,8.03
2019-03-01T17:31:40.158Z,8.37
2019-03-01T17:36:45.958Z,8.13
2019-03-01T17:41:53.573Z,7.37
2019-03-01T17:46:59.768Z,7.40
2019-03-01T17:52:06.068Z,6.67
2019-03-01T17:57:13.726Z,6.93
2019-03-01T18:02:19.488Z,6.07
2019-03-01T18:07:27.266Z,7.03
2019-03-01T18:12:33.468Z,6.33
2019-03-01T18:17:39.531Z,5.47
2019-03-01T18:22:45.842Z,5.23
2019-03-01T18:27:52.926Z,4.57
2019-03-01T18:32:59.163Z,5.23
2019-03-01T18:38:05.262Z,4.67
2019-03-01T18:43:13.054Z,5.23
2019-03-01T18:48:18.950Z,5.30
2019-03-01T18:53:28.572Z,4.20
2019-03-01T18:58:35.083Z,4.87
2019-03-01T19:03:41.492Z,4.10
2019-03-01T19:08:48.069Z,5.67
2019-03-01T19:13:55.258Z,4.60
2019-03-01T19:19:03.441Z,4.40
2019-03-01T19:24:09.145Z,4.40
2019-03-01T19:29:15.371Z,4.53
2019-03-01T19:34:22.889Z,4.33
2019-03-01T19:39:37.223Z,4.77
2019-03-01T19:44:44.086Z,5.00
2019-03-01T19:49:50.441Z,4.87
2019-03-01T19:54:56.752Z,4.07
2019-03-01T20:00:09.634Z,4.50
2019-03-01T20:05:20.984Z,4.57
2019-03-01T20:10:27.845Z,4.77
2019-03-01T20:15:36.120Z,4.63
2019-03-01T20:20:42.468Z,5.00
2019-03-01T20:25:52.732Z,4.57
2019-03-01T20:31:01.611Z,4.97
2019-03-01T20:36:08.788Z,5.03
2019-03-01T20:41:15.458Z,5.93
2019-03-01T20:46:24.409Z,5.20
2019-03-01T20:51:29.896Z,5.10
2019-03-01T20:56:41.167Z,4.40
2019-03-01T21:01:48.483Z,5.40
2019-03-01T21:06:55.462Z,16.87
2019-03-01T21:12:01.935Z,4.87
2019-03-01T21:17:10.967Z,5.40
2019-03-01T21:22:17.377Z,5.10
2019-03-01T21:27:25.993Z,5.80
2019-03-01T21:32:32.034Z,6.03
2019-03-01T21:37:39.405Z,5.37
2019-03-01T21:42:47.707Z,7.87
2019-03-01T21:47:59.965Z,7.20
2019-03-01T21:53:08.871Z,5.23
2019-03-01T21:58:19.260Z,5.87
2019-03-01T22:03:28.277Z,5.30
2019-03-01T22:08:36.581Z,5.00
2019-03-01T22:13:43.085Z,5.97
2019-03-01T22:18:49.331Z,7.27
2019-03-01T22:23:56.513Z,5.83
2019-03-01T22:29:05.407Z,5.53
2019-03-01T22:34:11.016Z,5.40
2019-03-01T22:39:19.110Z,5.40
2019-03-01T22:44:24.748Z,5.80
2019-03-01T22:49:34.100Z,6.37
2019-03-01T22:54:39.925Z,5.83
2019-03-01T22:59:48.311Z,6.00
2019-03-01T23:04:54.790Z,6.30
2019-03-01T23:10:00.351Z,5.80
2019-03-01T23:15:08.614Z,5.83
2019-03-01T23:20:14.323Z,5.70
2019-03-01T23:25:20.151Z,4.90
2019-03-01T23:30:28.845Z,5.43
2019-03-01T23:35:33.229Z,4.43
2019-03-01T23:40:40.435Z,4.53
2019-03-01T23:45:46.108Z,4.50
2019-03-01T23:50:52.308Z,4.70
2019-03-01T23:55:58.602Z,5.10
